createdAt,value
2023-02-24T00:00:34.120Z,4.28
2023-02-24T00:03:11.141Z,3.63
2023-02-24T00:05:48.158Z,4.20
2023-02-24T00:08:18.933Z,3.95
2023-02-24T00:10:47.821Z,2.33
2023-02-24T00:13:22.304Z,2.15
2023-02-24T00:16:03.097Z,3.88
2023-02-24T00:18:33.810Z,3.25
2023-02-24T00:21:08.350Z,2.83
2023-02-24T00:23:42.454Z,2.47
2023-02-24T00:26:13.469Z,2.72
2023-02-24T00:28:42.558Z,3.33
2023-02-24T00:31:15.812Z,2.10
2023-02-24T00:33:47.291Z,4.18
2023-02-24T00:36:23.935Z,2.65
2023-02-24T00:38:55.636Z,1.88
2023-02-24T00:41:29.298Z,2.45
2023-02-24T00:43:59.794Z,2.58
2023-02-24T00:46:31.516Z,3.25
2023-02-24T00:49:05.423Z,3.88
2023-02-24T00:51:37.470Z,2.70
2023-02-24T00:54:05.565Z,2.90
2023-02-24T00:56:34.832Z,3.78
2023-02-24T00:59:03.592Z,5.05
2023-02-24T01:01:33.866Z,2.20
2023-02-24T01:04:11.108Z,3.40
2023-02-24T01:06:41.524Z,2.35
2023-02-24T01:09:13.387Z,3.88
2023-02-24T01:11:59.854Z,2.63
2023-02-24T01:14:30.154Z,2.72
2023-02-24T01:16:58.937Z,2.42
2023-02-24T01:19:31.511Z,1.73
2023-02-24T01:22:03.697Z,2.97
2023-02-24T01:24:34.063Z,2.53
2023-02-24T01:27:02.615Z,2.72
2023-02-24T01:29:30.558Z,2.92
2023-02-24T01:31:59.404Z,2.22
2023-02-24T01:34:29.202Z,5.03
2023-02-24T01:36:58.847Z,2.25
2023-02-24T01:39:26.826Z,2.28
2023-02-24T01:42:01.772Z,3.85
2023-02-24T01:45:12.580Z,2.20
2023-02-24T01:47:41.598Z,2.90
2023-02-24T01:50:15.116Z,2.55
2023-02-24T01:52:46.460Z,1.80
2023-02-24T01:55:19.990Z,3.42
2023-02-24T01:57:49.381Z,2.15
2023-02-24T02:00:36.990Z,2.40
2023-02-24T02:03:18.466Z,1.85
2023-02-24T02:05:49.087Z,2.30
2023-02-24T02:08:19.196Z,1.45
2023-02-24T02:10:48.028Z,1.55
2023-02-24T02:13:21.434Z,3.35
2023-02-24T02:16:02.793Z,2.63
2023-02-24T02:18:43.856Z,2.20
2023-02-24T02:21:51.140Z,2.38
2023-02-24T02:24:44.724Z,2.08
2023-02-24T02:27:36.121Z,1.83
2023-02-24T02:30:25.015Z,2.38
2023-02-24T02:33:24.507Z,2.58
2023-02-24T02:36:00.593Z,1.70
2023-02-24T02:38:34.718Z,3.05
2023-02-24T02:41:12.199Z,2.05
2023-02-24T02:43:48.885Z,2.65
2023-02-24T02:46:34.557Z,3.50
2023-02-24T02:49:12.719Z,1.70
2023-02-24T02:51:46.993Z,1.85
2023-02-24T02:54:21.091Z,2.40
2023-02-24T02:56:56.828Z,2.00
2023-02-24T02:59:28.085Z,2.20
2023-02-24T03:02:11.382Z,2.30
2023-02-24T03:04:43.233Z,1.98
2023-02-24T03:07:15.443Z,2.53
2023-02-24T03:09:47.466Z,2.13
2023-02-24T03:12:18.896Z,2.05
2023-02-24T03:14:51.304Z,1.80
2023-02-24T03:17:23.885Z,2.35
2023-02-24T03:20:00.226Z,1.52
2023-02-24T03:22:35.404Z,1.92
2023-02-24T03:25:05.796Z,2.30
2023-02-24T03:27:44.456Z,2.15
2023-02-24T03:30:19.709Z,2.25
2023-02-24T03:32:56.105Z,2.33
2023-02-24T03:35:28.788Z,1.67
2023-02-24T03:38:00.443Z,1.95
2023-02-24T03:40:30.044Z,1.42
2023-02-24T03:43:05.363Z,1.95
2023-02-24T03:45:37.932Z,1.80
2023-02-24T03:48:07.651Z,1.77
2023-02-24T03:50:37.986Z,1.80
2023-02-24T03:53:42.465Z,1.63
2023-02-24T03:56:27.429Z,2.47
2023-02-24T03:59:09.144Z,1.95
2023-02-24T04:01:45.342Z,1.30
2023-02-24T04:04:19.578Z,3.25
2023-02-24T04:07:01.385Z,2.00
2023-02-24T04:09:41.700Z,1.83
2023-02-24T04:12:19.754Z,1.50
2023-02-24T04:14:56.730Z,5.47
2023-02-24T04:17:30.430Z,1.70
2023-02-24T04:20:03.233Z,1.80
2023-02-24T04:22:37.245Z,2.05
2023-02-24T04:25:13.260Z,1.55
2023-02-24T04:27:44.167Z,1.58
2023-02-24T04:30:16.487Z,2.30
2023-02-24T04:32:44.907Z,1.55
2023-02-24T04:35:16.869Z,1.90
2023-02-24T04:37:49.139Z,1.80
2023-02-24T04:40:22.881Z,1.45
2023-02-24T04:42:51.852Z,1.50
2023-02-24T04:45:22.792Z,1.45
2023-02-24T04:47:56.139Z,1.70
2023-02-24T04:50:25.989Z,1.63
2023-02-24T04:52:55.945Z,1.63
2023-02-24T04:55:29.471Z,1.50
2023-02-24T04:57:58.321Z,1.70
2023-02-24T05:00:29.331Z,1.83
2023-02-24T05:03:01.746Z,2.08
2023-02-24T05:05:33.688Z,1.60
2023-02-24T05:08:04.074Z,1.88
2023-02-24T05:10:38.752Z,1.50
2023-02-24T05:13:09.286Z,1.65
2023-02-24T05:15:41.603Z,2.45
2023-02-24T05:18:13.884Z,1.42
2023-02-24T05:21:01.863Z,2.60
2023-02-24T05:23:33.339Z,1.98
2023-02-24T05:26:08.450Z,1.80
2023-02-24T05:28:37.818Z,1.80
2023-02-24T05:31:08.665Z,1.38
2023-02-24T05:33:38.062Z,2.50
2023-02-24T05:36:08.562Z,1.10
2023-02-24T05:38:38.644Z,1.10
2023-02-24T05:41:14.995Z,3.40
2023-02-24T05:43:48.062Z,1.30
2023-02-24T05:46:16.698Z,1.52
2023-02-24T05:48:44.746Z,1.30
2023-02-24T05:51:13.215Z,1.65
2023-02-24T05:53:42.339Z,1.73
2023-02-24T05:56:12.243Z,2.85
2023-02-24T05:58:40.583Z,1.45
2023-02-24T06:01:16.225Z,1.30
2023-02-24T06:03:47.768Z,2.17
2023-02-24T06:06:16.318Z,1.30
2023-02-24T06:08:49.907Z,1.42
2023-02-24T06:11:21.397Z,1.67
2023-02-24T06:13:49.698Z,1.60
2023-02-24T06:16:19.011Z,0.95
2023-02-24T06:18:49.798Z,1.23
2023-02-24T06:21:17.846Z,1.23
2023-02-24T06:23:46.186Z,2.42
2023-02-24T06:26:19.079Z,1.58
2023-02-24T06:28:48.671Z,2.70
2023-02-24T06:31:17.116Z,2.03
2023-02-24T06:33:45.047Z,2.08
2023-02-24T06:36:14.246Z,1.38
2023-02-24T06:38:43.454Z,1.42
2023-02-24T06:41:11.778Z,1.80
2023-02-24T06:43:40.382Z,1.88
2023-02-24T06:46:10.945Z,1.80
2023-02-24T06:48:38.994Z,1.55
2023-02-24T06:51:09.625Z,1.30
2023-02-24T06:53:43.067Z,1.50
2023-02-24T06:56:14.753Z,2.25
2023-02-24T06:58:45.163Z,1.25
2023-02-24T07:01:19.640Z,1.33
2023-02-24T07:04:03.334Z,1.63
2023-02-24T07:06:34.463Z,1.92
2023-02-24T07:09:05.128Z,1.60
2023-02-24T07:11:33.898Z,1.00
2023-02-24T07:14:05.554Z,1.10
2023-02-24T07:16:35.725Z,1.30
2023-02-24T07:19:11.013Z,0.90
2023-02-24T07:21:44.982Z,2.58
2023-02-24T07:24:14.870Z,1.42
2023-02-24T07:26:43.754Z,1.48
2023-02-24T07:29:13.124Z,2.85
2023-02-24T07:31:43.084Z,1.20
2023-02-24T07:34:15.023Z,1.98
2023-02-24T07:36:49.272Z,1.00
2023-02-24T07:39:18.847Z,1.20
2023-02-24T07:41:49.519Z,1.10
2023-02-24T07:44:19.077Z,1.13
2023-02-24T07:46:49.290Z,1.92
2023-02-24T07:49:20.539Z,1.20
2023-02-24T07:51:52.492Z,1.60
2023-02-24T07:54:22.125Z,1.98
2023-02-24T07:56:56.576Z,1.60
2023-02-24T07:59:26.145Z,2.92
2023-02-24T08:01:56.504Z,1.52
2023-02-24T08:04:27.011Z,1.40
2023-02-24T08:07:02.489Z,1.65
2023-02-24T08:10:03.832Z,2.10
2023-02-24T08:12:34.951Z,1.42
2023-02-24T08:15:08.853Z,3.70
2023-02-24T08:17:39.997Z,1.83
2023-02-24T08:20:25.826Z,1.50
2023-02-24T08:22:55.157Z,1.00
2023-02-24T08:25:25.396Z,1.80
2023-02-24T08:28:08.313Z,1.75
2023-02-24T08:30:44.922Z,2.22
2023-02-24T08:33:19.769Z,2.13
2023-02-24T08:35:53.062Z,2.15
2023-02-24T08:38:25.913Z,2.97
2023-02-24T08:40:57.149Z,3.03
2023-02-24T08:43:33.532Z,1.58
2023-02-24T08:46:06.385Z,1.65
2023-02-24T08:48:38.133Z,2.42
2023-02-24T08:51:09.899Z,3.10
2023-02-24T08:53:40.626Z,2.60
2023-02-24T08:56:11.455Z,2.67
2023-02-24T08:58:46.935Z,2.83
2023-02-24T09:01:24.094Z,1.75
2023-02-24T09:03:56.369Z,2.38
2023-02-24T09:06:28.161Z,2.25
2023-02-24T09:09:11.710Z,1.40
2023-02-24T09:11:43.924Z,1.85
2023-02-24T09:14:26.816Z,2.15
2023-02-24T09:17:10.788Z,2.13
2023-02-24T09:20:02.261Z,1.70
2023-02-24T09:22:31.799Z,1.98
2023-02-24T09:25:21.731Z,1.80
2023-02-24T09:27:55.738Z,1.63
2023-02-24T09:30:39.243Z,1.08
2023-02-24T09:33:17.846Z,1.30
2023-02-24T09:35:49.670Z,2.30
2023-02-24T09:38:19.917Z,2.47
2023-02-24T09:40:50.237Z,2.38
2023-02-24T09:43:24.227Z,2.53
2023-02-24T09:45:58.301Z,1.67
2023-02-24T09:48:34.028Z,2.00
2023-02-24T09:51:05.236Z,2.53
2023-02-24T09:53:41.604Z,1.77
2023-02-24T09:56:22.039Z,1.42
2023-02-24T09:58:58.501Z,1.55
2023-02-24T10:01:46.706Z,1.20
2023-02-24T10:04:27.461Z,1.48
2023-02-24T10:07:05.690Z,1.90
2023-02-24T10:09:37.797Z,2.45
2023-02-24T10:12:17.082Z,1.63
2023-02-24T10:14:52.930Z,1.67
2023-02-24T10:17:23.687Z,1.52
2023-02-24T10:19:59.959Z,1.75
2023-02-24T10:22:50.712Z,1.00
2023-02-24T10:25:41.193Z,2.63
2023-02-24T10:28:22.955Z,1.40
2023-02-24T10:31:10.146Z,2.35
2023-02-24T10:33:45.131Z,1.25
2023-02-24T10:36:17.174Z,1.77
2023-02-24T10:38:47.219Z,1.77
2023-02-24T10:41:16.079Z,2.08
2023-02-24T10:43:55.923Z,2.58
2023-02-24T10:46:41.172Z,2.67
2023-02-24T10:49:16.180Z,2.30
2023-02-24T10:51:49.685Z,3.15
2023-02-24T10:54:44.808Z,2.25
2023-02-24T10:57:23.122Z,1.75
2023-02-24T11:00:14.185Z,1.95
2023-02-24T11:03:07.018Z,1.85
2023-02-24T11:06:05.226Z,1.98
2023-02-24T11:08:43.991Z,2.83
2023-02-24T11:11:25.406Z,2.25
2023-02-24T11:14:12.017Z,1.73
2023-02-24T11:17:03.581Z,1.80
2023-02-24T11:19:33.288Z,2.25
2023-02-24T11:22:02.579Z,2.35
2023-02-24T11:24:30.634Z,2.25
2023-02-24T11:26:59.946Z,1.63
2023-02-24T11:29:43.313Z,1.80
2023-02-24T11:32:26.062Z,1.40
2023-02-24T11:34:59.518Z,2.40
2023-02-24T11:37:38.244Z,2.67
2023-02-24T11:40:16.053Z,2.25
2023-02-24T11:42:50.006Z,1.45
2023-02-24T11:45:29.417Z,1.92
2023-02-24T11:48:03.001Z,1.73
2023-02-24T11:50:39.577Z,1.35
2023-02-24T11:53:19.823Z,2.05
2023-02-24T11:55:52.918Z,2.58
2023-02-24T11:58:28.110Z,1.67
2023-02-24T12:01:02.717Z,2.30
2023-02-24T12:03:36.237Z,2.05
2023-02-24T12:06:15.234Z,1.80
2023-02-24T12:08:46.665Z,1.98
2023-02-24T12:11:20.754Z,1.38
2023-02-24T12:13:57.276Z,2.15
2023-02-24T12:16:30.706Z,2.53
2023-02-24T12:19:04.650Z,1.60
2023-02-24T12:21:37.085Z,2.08
2023-02-24T12:24:08.623Z,1.30
2023-02-24T12:26:47.864Z,2.17
2023-02-24T12:29:34.332Z,1.60
2023-02-24T12:32:11.699Z,2.80
2023-02-24T12:34:49.307Z,2.28
2023-02-24T12:37:30.123Z,2.78
2023-02-24T12:40:13.591Z,1.65
2023-02-24T12:42:47.796Z,2.42
2023-02-24T12:45:22.886Z,1.63
2023-02-24T12:48:04.613Z,1.50
2023-02-24T12:50:44.561Z,2.13
2023-02-24T12:53:21.565Z,1.52
2023-02-24T12:55:57.963Z,2.30
2023-02-24T12:58:30.045Z,1.63
2023-02-24T13:01:11.947Z,1.88
2023-02-24T13:04:07.996Z,2.08
2023-02-24T13:06:49.835Z,1.45
2023-02-24T13:09:25.235Z,1.70
2023-02-24T13:11:58.892Z,2.03
2023-02-24T13:14:30.153Z,1.60
2023-02-24T13:17:07.803Z,2.45
2023-02-24T13:19:36.805Z,1.52
2023-02-24T13:22:08.633Z,1.67
2023-02-24T13:24:37.373Z,1.95
2023-02-24T13:27:18.799Z,1.98
2023-02-24T13:29:48.404Z,1.80
2023-02-24T13:32:30.149Z,1.80
2023-02-24T13:34:58.727Z,2.33
2023-02-24T13:37:32.197Z,1.92
2023-02-24T13:40:01.518Z,2.70
2023-02-24T13:42:31.988Z,1.92
2023-02-24T13:45:07.611Z,1.67
2023-02-24T13:47:59.788Z,1.45
2023-02-24T13:50:37.216Z,1.67
2023-02-24T13:53:28.176Z,2.05
2023-02-24T13:56:19.999Z,1.98
2023-02-24T13:59:06.170Z,1.58
2023-02-24T14:01:47.344Z,1.60
2023-02-24T14:04:19.929Z,1.70
2023-02-24T14:06:50.685Z,1.60
2023-02-24T14:09:24.348Z,1.85
2023-02-24T14:11:55.946Z,1.55
2023-02-24T14:14:26.967Z,1.67
2023-02-24T14:16:54.993Z,1.00
2023-02-24T14:19:27.126Z,1.83
2023-02-24T14:21:59.102Z,1.70
2023-02-24T14:24:29.123Z,1.25
2023-02-24T14:26:59.400Z,1.25
2023-02-24T14:29:32.791Z,1.77
2023-02-24T14:32:02.110Z,1.60
2023-02-24T14:34:33.924Z,1.88
2023-02-24T14:37:04.622Z,1.40
2023-02-24T14:39:34.276Z,1.58
2023-02-24T14:42:13.099Z,1.30
2023-02-24T14:44:50.899Z,1.00
2023-02-24T14:47:20.651Z,1.92
2023-02-24T14:49:59.358Z,1.23
2023-02-24T14:52:34.289Z,1.35
2023-02-24T14:55:07.118Z,1.15
2023-02-24T14:57:39.233Z,1.42
2023-02-24T15:00:17.336Z,1.05
2023-02-24T15:02:49.610Z,1.90
2023-02-24T15:05:19.241Z,2.95
2023-02-24T15:07:51.731Z,4.95
2023-02-24T15:10:26.142Z,2.08
2023-02-24T15:13:00.742Z,1.77
2023-02-24T15:15:31.838Z,1.27
2023-02-24T15:18:04.249Z,1.40
2023-02-24T15:20:40.084Z,1.85
2023-02-24T15:23:27.384Z,1.30
2023-02-24T15:25:55.275Z,1.17
2023-02-24T15:28:25.849Z,1.40
2023-02-24T15:31:05.938Z,1.30
2023-02-24T15:33:54.407Z,2.25
2023-02-24T15:36:32.673Z,1.52
2023-02-24T15:39:03.677Z,1.20
2023-02-24T15:41:40.852Z,1.70
2023-02-24T15:44:27.602Z,2.33
2023-02-24T15:46:56.248Z,1.35
2023-02-24T15:49:24.679Z,1.33
2023-02-24T15:51:55.752Z,2.25
2023-02-24T15:54:31.274Z,1.20
2023-02-24T15:57:00.284Z,1.52
2023-02-24T15:59:41.889Z,2.60
2023-02-24T16:02:14.023Z,3.78
2023-02-24T16:04:41.997Z,7.03
2023-02-24T16:07:16.982Z,3.75
2023-02-24T16:09:45.769Z,6.28
2023-02-24T16:12:21.772Z,4.80
2023-02-24T16:15:02.074Z,6.28
2023-02-24T16:17:35.566Z,4.65
2023-02-24T16:20:08.434Z,6.68
2023-02-24T16:22:37.776Z,6.65
2023-02-24T16:25:06.890Z,6.80
2023-02-24T16:27:35.031Z,8.73
2023-02-24T16:30:04.085Z,7.97
2023-02-24T16:32:32.116Z,12.13
2023-02-24T16:35:01.948Z,9.48
2023-02-24T16:37:38.329Z,10.00
2023-02-24T16:40:20.338Z,6.22
2023-02-24T16:42:48.654Z,8.30
2023-02-24T16:45:16.736Z,6.57
2023-02-24T16:47:45.856Z,8.63
2023-02-24T16:50:28.037Z,7.20
2023-02-24T16:52:55.971Z,8.40
2023-02-24T16:55:25.467Z,5.97
2023-02-24T16:57:53.412Z,6.72
2023-02-24T17:00:24.623Z,7.47
2023-02-24T17:02:53.792Z,7.70
2023-02-24T17:05:23.887Z,7.03
2023-02-24T17:07:55.374Z,6.70
2023-02-24T17:10:25.720Z,6.07
2023-02-24T17:12:53.668Z,6.15
2023-02-24T17:15:23.435Z,5.97
2023-02-24T17:17:51.678Z,6.45
2023-02-24T17:20:22.330Z,5.07
2023-02-24T17:22:50.688Z,5.60
2023-02-24T17:25:24.963Z,5.50
2023-02-24T17:27:55.230Z,5.03
2023-02-24T17:30:25.956Z,4.68
2023-02-24T17:32:53.953Z,7.13
2023-02-24T17:35:22.205Z,3.55
2023-02-24T17:37:50.160Z,3.60
2023-02-24T17:40:18.547Z,4.78
2023-02-24T17:42:46.468Z,4.82
2023-02-24T17:45:16.762Z,6.75
2023-02-24T17:47:44.776Z,3.78
2023-02-24T17:50:14.043Z,4.65
2023-02-24T17:52:42.056Z,4.05
2023-02-24T17:55:10.611Z,3.50
2023-02-24T17:57:41.386Z,3.28
2023-02-24T18:00:12.410Z,5.00
2023-02-24T18:02:41.889Z,3.45
2023-02-24T18:05:10.271Z,3.33
2023-02-24T18:07:38.544Z,5.40
2023-02-24T18:10:07.985Z,4.30
2023-02-24T18:12:35.857Z,3.15
2023-02-24T18:15:08.788Z,3.65
2023-02-24T18:17:38.189Z,2.10
2023-02-24T18:20:08.984Z,3.42
2023-02-24T18:22:37.189Z,3.08
2023-02-24T18:25:05.507Z,2.13
2023-02-24T18:27:33.430Z,3.08
2023-02-24T18:30:01.346Z,3.60
2023-02-24T18:32:29.552Z,2.85
2023-02-24T18:34:57.574Z,2.83
2023-02-24T18:37:26.848Z,3.65
2023-02-24T18:39:54.890Z,2.17
2023-02-24T18:42:22.885Z,2.65
2023-02-24T18:44:50.821Z,3.30
2023-02-24T18:47:18.775Z,2.13
2023-02-24T18:49:46.756Z,3.58
2023-02-24T18:52:17.715Z,2.63
2023-02-24T18:54:48.485Z,3.17
2023-02-24T18:57:16.398Z,4.25
2023-02-24T18:59:44.427Z,3.60
2023-02-24T19:02:12.343Z,3.65
2023-02-24T19:04:40.264Z,1.95
2023-02-24T19:07:08.413Z,3.53
2023-02-24T19:09:36.409Z,3.10
2023-02-24T19:12:06.428Z,3.25
2023-02-24T19:14:34.408Z,2.22
2023-02-24T19:17:03.822Z,4.72
2023-02-24T19:19:31.760Z,2.75
2023-02-24T19:22:00.254Z,2.55
2023-02-24T19:24:29.209Z,3.10
2023-02-24T19:26:57.431Z,2.95
2023-02-24T19:29:28.096Z,2.53
2023-02-24T19:31:57.982Z,3.65
2023-02-24T19:34:26.036Z,2.75
2023-02-24T19:36:53.929Z,2.95
2023-02-24T19:39:21.880Z,2.30
2023-02-24T19:41:50.133Z,2.60
2023-02-24T19:44:18.045Z,3.05
2023-02-24T19:46:47.499Z,3.17
2023-02-24T19:49:15.450Z,2.40
2023-02-24T19:51:46.021Z,1.95
2023-02-24T19:54:16.138Z,2.28
2023-02-24T19:56:45.701Z,2.17
2023-02-24T19:59:13.642Z,2.85
2023-02-24T20:01:41.839Z,2.83
2023-02-24T20:04:12.805Z,2.10
2023-02-24T20:06:43.385Z,1.63
2023-02-24T20:09:15.332Z,1.95
2023-02-24T20:11:44.595Z,2.85
2023-02-24T20:14:13.954Z,2.03
2023-02-24T20:16:43.337Z,2.83
2023-02-24T20:19:14.100Z,3.65
2023-02-24T20:21:42.426Z,3.08
2023-02-24T20:24:13.829Z,2.45
2023-02-24T20:26:43.184Z,2.20
2023-02-24T20:29:12.020Z,2.53
2023-02-24T20:31:40.868Z,1.65
2023-02-24T20:34:10.642Z,1.88
2023-02-24T20:36:41.170Z,4.82
2023-02-24T20:39:12.225Z,1.40
2023-02-24T20:41:41.092Z,2.45
2023-02-24T20:44:09.337Z,2.83
2023-02-24T20:46:37.841Z,3.08
2023-02-24T20:49:07.899Z,2.53
2023-02-24T20:51:37.883Z,3.45
2023-02-24T20:54:07.634Z,3.17
2023-02-24T20:56:37.523Z,2.10
2023-02-24T20:59:08.377Z,2.40
2023-02-24T21:01:37.324Z,3.45
2023-02-24T21:04:11.478Z,3.72
2023-02-24T21:06:39.582Z,2.38
2023-02-24T21:09:11.774Z,2.00
2023-02-24T21:11:40.201Z,1.75
2023-02-24T21:14:08.082Z,2.58
2023-02-24T21:16:36.360Z,2.28
2023-02-24T21:19:04.282Z,2.40
2023-02-24T21:21:32.205Z,2.58
2023-02-24T21:24:00.165Z,1.77
2023-02-24T21:26:29.462Z,2.38
2023-02-24T21:29:01.712Z,1.83
2023-02-24T21:31:29.684Z,3.05
2023-02-24T21:33:57.908Z,1.70
2023-02-24T21:36:27.876Z,1.58
2023-02-24T21:38:55.993Z,1.20
2023-02-24T21:41:24.270Z,1.60
2023-02-24T21:43:55.735Z,2.28
2023-02-24T21:46:27.868Z,2.10
2023-02-24T21:48:57.300Z,1.75
2023-02-24T21:51:25.858Z,1.75
2023-02-24T21:53:55.393Z,2.72
2023-02-24T21:56:25.282Z,2.00
2023-02-24T21:59:01.413Z,1.77
2023-02-24T22:01:31.564Z,2.00
2023-02-24T22:04:02.289Z,2.08
2023-02-24T22:06:32.044Z,2.78
2023-02-24T22:09:01.051Z,3.58
2023-02-24T22:11:32.469Z,1.98
2023-02-24T22:14:02.060Z,2.50
2023-02-24T22:16:30.420Z,2.88
2023-02-24T22:18:58.406Z,1.60
2023-02-24T22:21:28.235Z,2.25
2023-02-24T22:23:58.325Z,1.83
2023-02-24T22:26:27.521Z,1.92
2023-02-24T22:28:56.430Z,3.28
2023-02-24T22:31:27.842Z,1.65
2023-02-24T22:33:56.012Z,2.40
2023-02-24T22:36:25.980Z,2.10
2023-02-24T22:38:55.091Z,1.63
2023-02-24T22:41:25.021Z,2.30
2023-02-24T22:43:53.816Z,2.42
2023-02-24T22:46:26.718Z,2.88
2023-02-24T22:48:55.808Z,2.60
2023-02-24T22:51:24.372Z,1.70
2023-02-24T22:53:52.690Z,1.50
2023-02-24T22:56:22.838Z,2.05
2023-02-24T22:58:51.147Z,3.45
2023-02-24T23:01:21.834Z,1.90
2023-02-24T23:03:51.251Z,2.63
2023-02-24T23:06:21.466Z,2.20
2023-02-24T23:08:51.357Z,3.47
2023-02-24T23:11:22.530Z,2.63
2023-02-24T23:13:51.522Z,1.75
2023-02-24T23:16:21.965Z,1.63
2023-02-24T23:18:53.787Z,2.03
2023-02-24T23:21:23.985Z,2.25
2023-02-24T23:23:56.878Z,2.38
2023-02-24T23:26:32.055Z,1.60
2023-02-24T23:29:00.052Z,2.50
2023-02-24T23:31:28.522Z,1.90
2023-02-24T23:33:58.026Z,2.30
2023-02-24T23:36:26.625Z,2.40
2023-02-24T23:38:54.589Z,2.15
2023-02-24T23:41:22.540Z,1.67
2023-02-24T23:43:50.439Z,1.73
2023-02-24T23:46:18.421Z,1.35
2023-02-24T23:48:46.700Z,2.03
2023-02-24T23:51:16.196Z,2.10
2023-02-24T23:53:46.722Z,1.75
2023-02-24T23:56:17.526Z,3.22
2023-02-24T23:58:46.596Z,2.55
